sensor_id;sensor_type;location;lat;lon;timestamp;pressure;altitude;pressure_sealevel;temperature;humidity
72438;BME280;60444;43.534;-5.674;2022-12-29T00:00:05;101712.66;;;13.99;100.00
72438;BME280;60444;43.534;-5.674;2022-12-29T00:02:31;101718.22;;;13.96;100.00
72438;BME280;60444;43.534;-5.674;2022-12-29T00:04:57;101715.44;;;13.97;100.00
72438;BME280;60444;43.534;-5.674;2022-12-29T00:07:22;101710.00;;;13.97;100.00
72438;BME280;60444;43.534;-5.674;2022-12-29T00:09:48;101714.50;;;13.98;100.00
72438;BME280;60444;43.534;-5.674;2022-12-29T00:12:13;101721.69;;;13.99;100.00
72438;BME280;60444;43.534;-5.674;2022-12-29T00:14:39;101711.25;;;13.90;100.00
72438;BME280;60444;43.534;-5.674;2022-12-29T00:17:23;101700.16;;;13.95;100.00
72438;BME280;60444;43.534;-5.674;2022-12-29T00:19:48;101684.38;;;13.84;100.00
72438;BME280;60444;43.534;-5.674;2022-12-29T00:22:32;101680.84;;;13.82;100.00
72438;BME280;60444;43.534;-5.674;2022-12-29T00:25:16;101680.91;;;13.81;100.00
72438;BME280;60444;43.534;-5.674;2022-12-29T00:28:00;101681.56;;;13.86;100.00
72438;BME280;60444;43.534;-5.674;2022-12-29T00:30:44;101682.31;;;13.89;100.00
72438;BME280;60444;43.534;-5.674;2022-12-29T00:33:30;101663.63;;;13.82;100.00
72438;BME280;60444;43.534;-5.674;2022-12-29T00:36:25;101674.31;;;13.86;100.00
72438;BME280;60444;43.534;-5.674;2022-12-29T00:38:57;101648.56;;;13.75;100.00
72438;BME280;60444;43.534;-5.674;2022-12-29T00:41:42;101654.75;;;13.78;100.00
72438;BME280;60444;43.534;-5.674;2022-12-29T00:44:26;101656.81;;;13.73;100.00
72438;BME280;60444;43.534;-5.674;2022-12-29T00:46:52;101656.09;;;13.70;100.00
72438;BME280;60444;43.534;-5.674;2022-12-29T00:49:17;101678.19;;;13.81;100.00
72438;BME280;60444;43.534;-5.674;2022-12-29T00:51:57;101680.22;;;13.76;100.00
72438;BME280;60444;43.534;-5.674;2022-12-29T00:54:23;101670.84;;;13.64;100.00
72438;BME280;60444;43.534;-5.674;2022-12-29T00:56:50;101676.88;;;13.71;100.00
72438;BME280;60444;43.534;-5.674;2022-12-29T00:59:16;101655.72;;;13.59;100.00
72438;BME280;60444;43.534;-5.674;2022-12-29T01:01:42;101668.06;;;13.66;100.00
72438;BME280;60444;43.534;-5.674;2022-12-29T01:04:08;101652.19;;;13.57;100.00
72438;BME280;60444;43.534;-5.674;2022-12-29T01:06:36;101676.78;;;13.72;100.00
72438;BME280;60444;43.534;-5.674;2022-12-29T01:09:03;101676.00;;;13.70;100.00
72438;BME280;60444;43.534;-5.674;2022-12-29T01:11:47;101677.84;;;13.70;100.00
72438;BME280;60444;43.534;-5.674;2022-12-29T01:14:13;101677.19;;;13.65;100.00
72438;BME280;60444;43.534;-5.674;2022-12-29T01:16:38;101659.38;;;13.57;100.00
72438;BME280;60444;43.534;-5.674;2022-12-29T01:19:04;101667.16;;;13.65;100.00
72438;BME280;60444;43.534;-5.674;2022-12-29T01:21:29;101645.41;;;13.65;100.00
72438;BME280;60444;43.534;-5.674;2022-12-29T01:23:55;101650.78;;;13.67;100.00
72438;BME280;60444;43.534;-5.674;2022-12-29T01:26:21;101641.16;;;13.60;100.00
72438;BME280;60444;43.534;-5.674;2022-12-29T01:28:46;101620.53;;;13.56;100.00
72438;BME280;60444;43.534;-5.674;2022-12-29T01:31:13;101632.19;;;13.57;100.00
72438;BME280;60444;43.534;-5.674;2022-12-29T01:33:42;101613.22;;;13.56;100.00
72438;BME280;60444;43.534;-5.674;2022-12-29T01:36:11;101610.59;;;13.54;100.00
72438;BME280;60444;43.534;-5.674;2022-12-29T01:38:38;101619.47;;;13.58;100.00
72438;BME280;60444;43.534;-5.674;2022-12-29T01:41:04;101624.28;;;13.53;100.00
72438;BME280;60444;43.534;-5.674;2022-12-29T01:43:52;101638.81;;;13.52;100.00
72438;BME280;60444;43.534;-5.674;2022-12-29T01:46:41;101642.47;;;13.51;100.00
72438;BME280;60444;43.534;-5.674;2022-12-29T01:49:16;101639.19;;;13.44;100.00
72438;BME280;60444;43.534;-5.674;2022-12-29T01:51:46;101646.97;;;13.52;100.00
72438;BME280;60444;43.534;-5.674;2022-12-29T01:54:17;101649.69;;;13.52;100.00
72438;BME280;60444;43.534;-5.674;2022-12-29T01:56:46;101655.25;;;13.49;100.00
72438;BME280;60444;43.534;-5.674;2022-12-29T01:59:15;101657.25;;;13.45;100.00
72438;BME280;60444;43.534;-5.674;2022-12-29T02:01:43;101656.06;;;13.51;100.00
72438;BME280;60444;43.534;-5.674;2022-12-29T02:04:10;101644.53;;;13.46;100.00
72438;BME280;60444;43.534;-5.674;2022-12-29T02:09:14;101642.03;;;13.41;100.00
72438;BME280;60444;43.534;-5.674;2022-12-29T02:11:39;101641.91;;;13.44;100.00
72438;BME280;60444;43.534;-5.674;2022-12-29T02:14:09;101632.31;;;13.36;100.00
72438;BME280;60444;43.534;-5.674;2022-12-29T02:19:21;101654.44;;;13.47;100.00
72438;BME280;60444;43.534;-5.674;2022-12-29T02:30:38;101652.69;;;13.46;100.00
72438;BME280;60444;43.534;-5.674;2022-12-29T02:33:21;101649.97;;;13.46;100.00
72438;BME280;60444;43.534;-5.674;2022-12-29T02:35:56;101653.72;;;13.43;100.00
72438;BME280;60444;43.534;-5.674;2022-12-29T02:44:34;101644.31;;;13.32;100.00
72438;BME280;60444;43.534;-5.674;2022-12-29T02:47:15;101643.63;;;13.27;100.00
72438;BME280;60444;43.534;-5.674;2022-12-29T02:49:51;101685.66;;;13.38;100.00
72438;BME280;60444;43.534;-5.674;2022-12-29T02:52:25;101686.69;;;13.36;100.00
72438;BME280;60444;43.534;-5.674;2022-12-29T02:54:55;101691.25;;;13.35;100.00
72438;BME280;60444;43.534;-5.674;2022-12-29T03:00:10;101674.22;;;13.32;100.00
72438;BME280;60444;43.534;-5.674;2022-12-29T03:11:13;101684.66;;;13.41;100.00
72438;BME280;60444;43.534;-5.674;2022-12-29T03:14:20;101680.31;;;13.37;100.00
72438;BME280;60444;43.534;-5.674;2022-12-29T03:17:45;101689.34;;;13.37;100.00
72438;BME280;60444;43.534;-5.674;2022-12-29T03:20:17;101682.44;;;13.30;100.00
72438;BME280;60444;43.534;-5.674;2022-12-29T03:22:47;101687.72;;;13.33;100.00
72438;BME280;60444;43.534;-5.674;2022-12-29T03:25:15;101691.84;;;13.42;100.00
72438;BME280;60444;43.534;-5.674;2022-12-29T03:27:48;101690.94;;;13.41;100.00
72438;BME280;60444;43.534;-5.674;2022-12-29T03:30:14;101676.63;;;13.38;100.00
72438;BME280;60444;43.534;-5.674;2022-12-29T03:32:51;101696.38;;;13.41;100.00
72438;BME280;60444;43.534;-5.674;2022-12-29T03:35:21;101692.81;;;13.41;100.00
72438;BME280;60444;43.534;-5.674;2022-12-29T03:40:59;101680.47;;;13.34;100.00
72438;BME280;60444;43.534;-5.674;2022-12-29T03:43:26;101676.13;;;13.30;100.00
72438;BME280;60444;43.534;-5.674;2022-12-29T03:45:52;101678.53;;;13.36;100.00
72438;BME280;60444;43.534;-5.674;2022-12-29T03:48:17;101686.47;;;13.40;100.00
72438;BME280;60444;43.534;-5.674;2022-12-29T03:50:43;101675.81;;;13.36;100.00
72438;BME280;60444;43.534;-5.674;2022-12-29T03:53:08;101681.31;;;13.34;100.00
72438;BME280;60444;43.534;-5.674;2022-12-29T03:55:34;101706.25;;;13.44;100.00
72438;BME280;60444;43.534;-5.674;2022-12-29T03:57:59;101708.97;;;13.44;100.00
72438;BME280;60444;43.534;-5.674;2022-12-29T04:00:25;101679.75;;;13.29;100.00
72438;BME280;60444;43.534;-5.674;2022-12-29T04:02:51;101694.47;;;13.43;100.00
72438;BME280;60444;43.534;-5.674;2022-12-29T04:05:17;101673.41;;;13.30;100.00
72438;BME280;60444;43.534;-5.674;2022-12-29T04:07:43;101687.50;;;13.38;100.00
72438;BME280;60444;43.534;-5.674;2022-12-29T04:10:08;101696.47;;;13.40;100.00
72438;BME280;60444;43.534;-5.674;2022-12-29T04:12:34;101688.63;;;13.34;100.00
72438;BME280;60444;43.534;-5.674;2022-12-29T04:14:59;101676.31;;;13.25;100.00
72438;BME280;60444;43.534;-5.674;2022-12-29T04:17:25;101667.22;;;13.26;100.00
72438;BME280;60444;43.534;-5.674;2022-12-29T04:19:50;101655.00;;;13.16;100.00
72438;BME280;60444;43.534;-5.674;2022-12-29T04:22:16;101685.19;;;13.29;100.00
72438;BME280;60444;43.534;-5.674;2022-12-29T04:24:41;101692.50;;;13.28;100.00
72438;BME280;60444;43.534;-5.674;2022-12-29T04:27:07;101684.63;;;13.22;100.00
72438;BME280;60444;43.534;-5.674;2022-12-29T04:29:32;101691.06;;;13.20;100.00
72438;BME280;60444;43.534;-5.674;2022-12-29T04:31:59;101708.84;;;13.27;100.00
72438;BME280;60444;43.534;-5.674;2022-12-29T04:34:24;101704.28;;;13.27;100.00
72438;BME280;60444;43.534;-5.674;2022-12-29T04:36:50;101701.00;;;13.21;100.00
72438;BME280;60444;43.534;-5.674;2022-12-29T04:39:15;101711.56;;;13.27;100.00
72438;BME280;60444;43.534;-5.674;2022-12-29T04:41:41;101694.75;;;13.19;100.00
72438;BME280;60444;43.534;-5.674;2022-12-29T04:44:06;101673.00;;;13.19;100.00
72438;BME280;60444;43.534;-5.674;2022-12-29T04:46:32;101698.34;;;13.19;100.00
72438;BME280;60444;43.534;-5.674;2022-12-29T04:48:57;101695.47;;;13.22;100.00
72438;BME280;60444;43.534;-5.674;2022-12-29T04:51:23;101689.16;;;13.22;100.00
72438;BME280;60444;43.534;-5.674;2022-12-29T04:53:48;101702.53;;;13.26;100.00
72438;BME280;60444;43.534;-5.674;2022-12-29T04:56:14;101694.75;;;13.19;100.00
72438;BME280;60444;43.534;-5.674;2022-12-29T04:58:39;101701.66;;;13.26;100.00
72438;BME280;60444;43.534;-5.674;2022-12-29T05:01:05;101698.78;;;13.29;100.00
72438;BME280;60444;43.534;-5.674;2022-12-29T05:03:30;101683.59;;;13.25;100.00
72438;BME280;60444;43.534;-5.674;2022-12-29T05:05:56;101689.91;;;13.25;100.00
72438;BME280;60444;43.534;-5.674;2022-12-29T05:08:23;101681.91;;;13.22;100.00
72438;BME280;60444;43.534;-5.674;2022-12-29T05:10:50;101696.06;;;13.29;100.00
72438;BME280;60444;43.534;-5.674;2022-12-29T05:13:16;101678.28;;;13.22;100.00
72438;BME280;60444;43.534;-5.674;2022-12-29T05:15:49;101677.28;;;13.24;100.00
72438;BME280;60444;43.534;-5.674;2022-12-29T05:18:15;101664.84;;;13.19;100.00
72438;BME280;60444;43.534;-5.674;2022-12-29T05:20:41;101653.03;;;13.20;100.00
72438;BME280;60444;43.534;-5.674;2022-12-29T05:23:06;101671.78;;;13.26;100.00
72438;BME280;60444;43.534;-5.674;2022-12-29T05:25:32;101678.28;;;13.22;100.00
72438;BME280;60444;43.534;-5.674;2022-12-29T05:27:57;101672.84;;;13.22;100.00
72438;BME280;60444;43.534;-5.674;2022-12-29T05:30:23;101681.91;;;13.22;100.00
72438;BME280;60444;43.534;-5.674;2022-12-29T05:32:49;101707.09;;;13.26;100.00
72438;BME280;60444;43.534;-5.674;2022-12-29T05:35:14;101688.56;;;13.15;100.00
72438;BME280;60444;43.534;-5.674;2022-12-29T05:37:40;101680.34;;;13.17;100.00
72438;BME280;60444;43.534;-5.674;2022-12-29T05:40:06;101692.69;;;13.24;100.00
72438;BME280;60444;43.534;-5.674;2022-12-29T05:42:32;101693.72;;;13.21;100.00
72438;BME280;60444;43.534;-5.674;2022-12-29T05:44:58;101689.16;;;13.22;100.00
72438;BME280;60444;43.534;-5.674;2022-12-29T05:47:23;101674.00;;;13.16;100.00
72438;BME280;60444;43.534;-5.674;2022-12-29T05:49:49;101687.25;;;13.24;100.00
72438;BME280;60444;43.534;-5.674;2022-12-29T05:52:14;101658.88;;;13.11;100.00
72438;BME280;60444;43.534;-5.674;2022-12-29T05:54:40;101676.53;;;13.21;100.00
72438;BME280;60444;43.534;-5.674;2022-12-29T05:57:05;101691.88;;;13.22;100.00
72438;BME280;60444;43.534;-5.674;2022-12-29T05:59:31;101682.25;;;13.15;100.00
72438;BME280;60444;43.534;-5.674;2022-12-29T06:01:56;101691.06;;;13.20;100.00
72438;BME280;60444;43.534;-5.674;2022-12-29T06:04:22;101683.28;;;13.12;100.00
72438;BME280;60444;43.534;-5.674;2022-12-29T06:06:47;101704.63;;;13.20;100.00
72438;BME280;60444;43.534;-5.674;2022-12-29T06:09:13;101715.50;;;13.20;100.00
72438;BME280;60444;43.534;-5.674;2022-12-29T06:11:38;101698.75;;;13.10;100.00
72438;BME280;60444;43.534;-5.674;2022-12-29T06:14:04;101704.13;;;13.12;100.00
72438;BME280;60444;43.534;-5.674;2022-12-29T06:16:29;101714.16;;;13.10;100.00
72438;BME280;60444;43.534;-5.674;2022-12-29T06:18:55;101721.25;;;13.14;100.00
72438;BME280;60444;43.534;-5.674;2022-12-29T06:21:20;101722.25;;;13.11;100.00
72438;BME280;60444;43.534;-5.674;2022-12-29T06:23:46;101734.81;;;13.14;100.00
72438;BME280;60444;43.534;-5.674;2022-12-29T06:26:11;101721.44;;;13.09;100.00
72438;BME280;60444;43.534;-5.674;2022-12-29T06:28:37;101737.31;;;13.18;100.00
72438;BME280;60444;43.534;-5.674;2022-12-29T06:31:02;101731.06;;;13.16;100.00
72438;BME280;60444;43.534;-5.674;2022-12-29T06:33:29;101732.91;;;13.16;100.00
72438;BME280;60444;43.534;-5.674;2022-12-29T06:35:54;101737.31;;;13.18;100.00
72438;BME280;60444;43.534;-5.674;2022-12-29T06:38:20;101730.88;;;13.21;100.00
72438;BME280;60444;43.534;-5.674;2022-12-29T06:40:45;101741.06;;;13.16;100.00
72438;BME280;60444;43.534;-5.674;2022-12-29T06:43:11;101725.56;;;13.18;100.00
72438;BME280;60444;43.534;-5.674;2022-12-29T06:45:38;101726.53;;;13.17;100.00
72438;BME280;60444;43.534;-5.674;2022-12-29T06:48:05;101735.50;;;13.19;100.00
72438;BME280;60444;43.534;-5.674;2022-12-29T06:50:31;101728.34;;;13.16;100.00
72438;BME280;60444;43.534;-5.674;2022-12-29T06:52:56;101727.59;;;13.13;100.00
72438;BME280;60444;43.534;-5.674;2022-12-29T06:55:22;101733.50;;;13.22;100.00
72438;BME280;60444;43.534;-5.674;2022-12-29T06:57:47;101740.78;;;13.22;100.00
72438;BME280;60444;43.534;-5.674;2022-12-29T07:00:13;101722.16;;;13.13;100.00
72438;BME280;60444;43.534;-5.674;2022-12-29T07:02:38;101727.59;;;13.13;100.00
72438;BME280;60444;43.534;-5.674;2022-12-29T07:05:04;101732.63;;;13.22;100.00
72438;BME280;60444;43.534;-5.674;2022-12-29T07:07:30;101725.44;;;13.21;100.00
72438;BME280;60444;43.534;-5.674;2022-12-29T07:09:55;101725.56;;;13.18;100.00
72438;BME280;60444;43.534;-5.674;2022-12-29T07:12:21;101724.47;;;13.22;100.00
72438;BME280;60444;43.534;-5.674;2022-12-29T07:14:46;101745.28;;;13.23;100.00
72438;BME280;60444;43.534;-5.674;2022-12-29T07:17:12;101748.94;;;13.22;100.00
72438;BME280;60444;43.534;-5.674;2022-12-29T07:19:37;101756.16;;;13.23;100.00
72438;BME280;60444;43.534;-5.674;2022-12-29T07:22:03;101739.44;;;13.12;100.00
72438;BME280;60444;43.534;-5.674;2022-12-29T07:24:28;101756.16;;;13.23;100.00
72438;BME280;60444;43.534;-5.674;2022-12-29T07:26:54;101751.63;;;13.22;100.00
72438;BME280;60444;43.534;-5.674;2022-12-29T07:29:20;101753.50;;;13.21;100.00
72438;BME280;60444;43.534;-5.674;2022-12-29T07:31:46;101746.53;;;13.14;100.00
72438;BME280;60444;43.534;-5.674;2022-12-29T07:34:11;101768.00;;;13.20;100.00
72438;BME280;60444;43.534;-5.674;2022-12-29T07:36:37;101763.72;;;13.15;100.00
72438;BME280;60444;43.534;-5.674;2022-12-29T07:39:03;101776.09;;;13.22;100.00
72438;BME280;60444;43.534;-5.674;2022-12-29T07:41:28;101777.00;;;13.22;100.00
72438;BME280;60444;43.534;-5.674;2022-12-29T07:43:54;101772.72;;;13.17;100.00
72438;BME280;60444;43.534;-5.674;2022-12-29T07:46:19;101774.44;;;13.18;100.00
72438;BME280;60444;43.534;-5.674;2022-12-29T07:48:45;101768.25;;;13.16;100.00
72438;BME280;60444;43.534;-5.674;2022-12-29T07:51:10;101772.63;;;13.18;100.00
72438;BME280;60444;43.534;-5.674;2022-12-29T07:53:36;101785.31;;;13.18;100.00
72438;BME280;60444;43.534;-5.674;2022-12-29T07:56:02;101792.47;;;13.20;100.00
72438;BME280;60444;43.534;-5.674;2022-12-29T07:58:27;101782.22;;;13.07;100.00
72438;BME280;60444;43.534;-5.674;2022-12-29T08:00:54;101808.91;;;13.17;100.00
72438;BME280;60444;43.534;-5.674;2022-12-29T08:03:20;101823.50;;;13.15;100.00
72438;BME280;60444;43.534;-5.674;2022-12-29T08:05:45;101829.41;;;13.04;100.00
72438;BME280;60444;43.534;-5.674;2022-12-29T08:08:11;101800.31;;;12.65;100.00
72438;BME280;60444;43.534;-5.674;2022-12-29T08:10:36;101824.84;;;12.83;100.00
72438;BME280;60444;43.534;-5.674;2022-12-29T08:13:02;101833.06;;;12.82;100.00
72438;BME280;60444;43.534;-5.674;2022-12-29T08:15:27;101835.22;;;12.74;100.00
72438;BME280;60444;43.534;-5.674;2022-12-29T08:17:53;101823.66;;;12.69;100.00
72438;BME280;60444;43.534;-5.674;2022-12-29T08:20:18;101850.97;;;12.64;100.00
72438;BME280;60444;43.534;-5.674;2022-12-29T08:22:44;101854.81;;;12.59;100.00
72438;BME280;60444;43.534;-5.674;2022-12-29T08:25:09;101862.03;;;12.60;100.00
72438;BME280;60444;43.534;-5.674;2022-12-29T08:27:35;101842.44;;;12.51;100.00
72438;BME280;60444;43.534;-5.674;2022-12-29T08:30:01;101848.16;;;12.45;100.00
72438;BME280;60444;43.534;-5.674;2022-12-29T08:32:27;101825.31;;;12.28;100.00
72438;BME280;60444;43.534;-5.674;2022-12-29T08:34:53;101846.16;;;12.27;100.00
72438;BME280;60444;43.534;-5.674;2022-12-29T08:37:19;101855.94;;;12.31;100.00
72438;BME280;60444;43.534;-5.674;2022-12-29T08:39:44;101848.00;;;12.27;100.00
72438;BME280;60444;43.534;-5.674;2022-12-29T08:42:10;101859.47;;;12.33;100.00
72438;BME280;60444;43.534;-5.674;2022-12-29T08:44:35;101885.69;;;12.34;100.00
72438;BME280;60444;43.534;-5.674;2022-12-29T08:47:01;101876.03;;;12.26;100.00
72438;BME280;60444;43.534;-5.674;2022-12-29T08:49:26;101856.25;;;12.24;100.00
72438;BME280;60444;43.534;-5.674;2022-12-29T08:51:52;101893.75;;;12.36;100.00
72438;BME280;60444;43.534;-5.674;2022-12-29T08:54:18;101870.69;;;12.24;100.00
72438;BME280;60444;43.534;-5.674;2022-12-29T08:56:43;101876.63;;;12.34;100.00
72438;BME280;60444;43.534;-5.674;2022-12-29T08:59:09;101873.94;;;12.34;100.00
72438;BME280;60444;43.534;-5.674;2022-12-29T09:01:34;101858.00;;;12.25;100.00
72438;BME280;60444;43.534;-5.674;2022-12-29T09:04:01;101879.22;;;12.37;100.00
72438;BME280;60444;43.534;-5.674;2022-12-29T09:06:27;101870.31;;;12.33;100.00
72438;BME280;60444;43.534;-5.674;2022-12-29T09:08:54;101880.94;;;12.39;100.00
72438;BME280;60444;43.534;-5.674;2022-12-29T09:11:22;101859.53;;;12.32;100.00
72438;BME280;60444;43.534;-5.674;2022-12-29T09:13:48;101883.44;;;12.45;100.00
72438;BME280;60444;43.534;-5.674;2022-12-29T09:16:14;101873.38;;;12.47;100.00
72438;BME280;60444;43.534;-5.674;2022-12-29T09:18:41;101868.97;;;12.45;100.00
72438;BME280;60444;43.534;-5.674;2022-12-29T09:21:07;101867.16;;;12.45;100.00
72438;BME280;60444;43.534;-5.674;2022-12-29T09:23:33;101874.31;;;12.46;100.00
72438;BME280;60444;43.534;-5.674;2022-12-29T09:25:59;101878.69;;;12.50;100.00
72438;BME280;60444;43.534;-5.674;2022-12-29T09:28:25;101879.69;;;12.48;100.00
72438;BME280;60444;43.534;-5.674;2022-12-29T09:30:51;101897.31;;;12.60;100.00
72438;BME280;60444;43.534;-5.674;2022-12-29T09:33:17;101884.00;;;12.53;100.00
72438;BME280;60444;43.534;-5.674;2022-12-29T09:35:44;101879.63;;;12.49;100.00
72438;BME280;60444;43.534;-5.674;2022-12-29T09:38:10;101898.91;;;12.65;100.00
72438;BME280;60444;43.534;-5.674;2022-12-29T09:40:37;101889.19;;;12.60;100.00
72438;BME280;60444;43.534;-5.674;2022-12-29T09:48:48;101914.91;;;12.73;100.00
72438;BME280;60444;43.534;-5.674;2022-12-29T09:51:18;101922.84;;;12.77;100.00
72438;BME280;60444;43.534;-5.674;2022-12-29T09:53:58;101911.22;;;12.74;100.00
72438;BME280;60444;43.534;-5.674;2022-12-29T09:56:26;101904.97;;;12.72;100.00
72438;BME280;60444;43.534;-5.674;2022-12-29T09:59:15;101900.28;;;12.75;100.00
72438;BME280;60444;43.534;-5.674;2022-12-29T10:01:51;101910.91;;;12.81;100.00
72438;BME280;60444;43.534;-5.674;2022-12-29T10:04:19;101897.81;;;12.69;100.00
72438;BME280;60444;43.534;-5.674;2022-12-29T10:07:05;101919.00;;;12.83;100.00
72438;BME280;60444;43.534;-5.674;2022-12-29T10:16:01;101931.50;;;12.87;100.00
72438;BME280;60444;43.534;-5.674;2022-12-29T10:23:57;101916.91;;;12.89;100.00
72438;BME280;60444;43.534;-5.674;2022-12-29T10:26:32;101929.25;;;12.98;100.00
72438;BME280;60444;43.534;-5.674;2022-12-29T10:29:06;101934.53;;;13.01;100.00
72438;BME280;60444;43.534;-5.674;2022-12-29T10:31:44;101926.47;;;12.99;100.00
72438;BME280;60444;43.534;-5.674;2022-12-29T10:34:43;101928.22;;;13.00;100.00
72438;BME280;60444;43.534;-5.674;2022-12-29T10:39:49;101916.44;;;13.01;100.00
72438;BME280;60444;43.534;-5.674;2022-12-29T10:42:29;101905.38;;;13.06;100.00
72438;BME280;60444;43.534;-5.674;2022-12-29T10:44:58;101887.41;;;13.02;100.00
72438;BME280;60444;43.534;-5.674;2022-12-29T10:47:31;101912.25;;;13.14;100.00
72438;BME280;60444;43.534;-5.674;2022-12-29T10:49:59;101897.25;;;13.06;100.00
72438;BME280;60444;43.534;-5.674;2022-12-29T10:52:26;101890.72;;;13.10;100.00
72438;BME280;60444;43.534;-5.674;2022-12-29T10:55:13;101909.22;;;13.22;100.00
72438;BME280;60444;43.534;-5.674;2022-12-29T10:57:43;101916.31;;;13.26;100.00
72438;BME280;60444;43.534;-5.674;2022-12-29T11:00:14;101918.13;;;13.25;100.00
72438;BME280;60444;43.534;-5.674;2022-12-29T11:08:35;101902.03;;;13.21;100.00
72438;BME280;60444;43.534;-5.674;2022-12-29T11:11:06;101905.25;;;13.30;100.00
72438;BME280;60444;43.534;-5.674;2022-12-29T11:14:19;101916.88;;;13.34;100.00
72438;BME280;60444;43.534;-5.674;2022-12-29T11:16:31;101902.31;;;13.35;100.00
72438;BME280;60444;43.534;-5.674;2022-12-29T11:18:57;101890.44;;;13.37;100.00
72438;BME280;60444;43.534;-5.674;2022-12-29T11:21:35;101879.69;;;13.34;100.00
72438;BME280;60444;43.534;-5.674;2022-12-29T11:27:34;101883.72;;;13.46;100.00
72438;BME280;60444;43.534;-5.674;2022-12-29T11:29:39;101902.28;;;13.57;100.00
72438;BME280;60444;43.534;-5.674;2022-12-29T11:32:21;101908.31;;;13.63;100.00
72438;BME280;60444;43.534;-5.674;2022-12-29T11:34:48;101909.44;;;13.59;100.00
72438;BME280;60444;43.534;-5.674;2022-12-29T11:37:38;101881.19;;;13.62;100.00
72438;BME280;60444;43.534;-5.674;2022-12-29T11:40:06;101884.66;;;13.65;100.00
72438;BME280;60444;43.534;-5.674;2022-12-29T11:47:48;101868.63;;;13.79;100.00
72438;BME280;60444;43.534;-5.674;2022-12-29T11:50:26;101864.13;;;13.78;100.00
72438;BME280;60444;43.534;-5.674;2022-12-29T11:53:07;101873.84;;;13.84;100.00
72438;BME280;60444;43.534;-5.674;2022-12-29T11:55:39;101863.88;;;13.84;100.00
72438;BME280;60444;43.534;-5.674;2022-12-29T11:58:05;101873.09;;;14.00;100.00
72438;BME280;60444;43.534;-5.674;2022-12-29T12:00:34;101861.13;;;14.04;100.00
72438;BME280;60444;43.534;-5.674;2022-12-29T12:03:14;101857.28;;;14.08;100.00
72438;BME280;60444;43.534;-5.674;2022-12-29T12:10:57;101839.56;;;14.18;100.00
72438;BME280;60444;43.534;-5.674;2022-12-29T12:16:04;101832.84;;;14.27;100.00
72438;BME280;60444;43.534;-5.674;2022-12-29T12:18:47;101811.13;;;14.25;100.00
72438;BME280;60444;43.534;-5.674;2022-12-29T12:21:20;101817.31;;;14.29;100.00
72438;BME280;60444;43.534;-5.674;2022-12-29T12:24:42;101809.25;;;14.27;100.00
72438;BME280;60444;43.534;-5.674;2022-12-29T12:26:58;101822.41;;;14.36;100.00
72438;BME280;60444;43.534;-5.674;2022-12-29T12:33:16;101820.09;;;14.46;100.00
72438;BME280;60444;43.534;-5.674;2022-12-29T12:44:00;101805.25;;;14.53;100.00
72438;BME280;60444;43.534;-5.674;2022-12-29T12:52:07;101802.44;;;14.54;100.00
72438;BME280;60444;43.534;-5.674;2022-12-29T13:03:47;101805.81;;;14.60;100.00
72438;BME280;60444;43.534;-5.674;2022-12-29T13:06:58;101803.66;;;14.66;100.00
72438;BME280;60444;43.534;-5.674;2022-12-29T13:09:45;101804.47;;;14.68;100.00
72438;BME280;60444;43.534;-5.674;2022-12-29T13:12:28;101797.34;;;14.66;100.00
72438;BME280;60444;43.534;-5.674;2022-12-29T13:14:59;101796.38;;;14.67;100.00
72438;BME280;60444;43.534;-5.674;2022-12-29T13:20:22;101789.19;;;14.66;100.00
72438;BME280;60444;43.534;-5.674;2022-12-29T13:23:46;101776.22;;;14.71;100.00
72438;BME280;60444;43.534;-5.674;2022-12-29T13:26:02;101778.22;;;14.67;100.00
72438;BME280;60444;43.534;-5.674;2022-12-29T13:31:32;101765.41;;;14.69;100.00
72438;BME280;60444;43.534;-5.674;2022-12-29T13:36:46;101731.75;;;14.53;100.00
72438;BME280;60444;43.534;-5.674;2022-12-29T13:39:21;101745.81;;;14.61;100.00
72438;BME280;60444;43.534;-5.674;2022-12-29T13:44:23;101741.03;;;14.66;100.00
72438;BME280;60444;43.534;-5.674;2022-12-29T13:46:50;101747.53;;;14.64;100.00
72438;BME280;60444;43.534;-5.674;2022-12-29T13:49:18;101738.28;;;14.66;100.00
72438;BME280;60444;43.534;-5.674;2022-12-29T13:51:53;101727.34;;;14.68;100.00
72438;BME280;60444;43.534;-5.674;2022-12-29T13:54:42;101733.81;;;14.65;100.00
72438;BME280;60444;43.534;-5.674;2022-12-29T14:00:21;101712.44;;;14.57;100.00
72438;BME280;60444;43.534;-5.674;2022-12-29T14:07:48;101702.50;;;14.74;100.00
72438;BME280;60444;43.534;-5.674;2022-12-29T14:10:35;101705.31;;;14.72;100.00
72438;BME280;60444;43.534;-5.674;2022-12-29T14:13:14;101703.47;;;14.73;100.00
72438;BME280;60444;43.534;-5.674;2022-12-29T14:15:44;101693.78;;;14.67;100.00
72438;BME280;60444;43.534;-5.674;2022-12-29T14:18:23;101711.75;;;14.71;100.00
72438;BME280;60444;43.534;-5.674;2022-12-29T14:28:43;101686.34;;;14.71;100.00
72438;BME280;60444;43.534;-5.674;2022-12-29T14:33:41;101690.66;;;14.75;100.00
72438;BME280;60444;43.534;-5.674;2022-12-29T14:36:37;101691.94;;;14.68;100.00
72438;BME280;60444;43.534;-5.674;2022-12-29T14:39:44;101690.16;;;14.67;100.00
72438;BME280;60444;43.534;-5.674;2022-12-29T14:44:49;101707.50;;;14.66;100.00
72438;BME280;60444;43.534;-5.674;2022-12-29T14:47:20;101686.22;;;14.55;100.00
72438;BME280;60444;43.534;-5.674;2022-12-29T14:49:49;101680.31;;;14.47;100.00
72438;BME280;60444;43.534;-5.674;2022-12-29T14:52:23;101680.88;;;14.53;100.00
72438;BME280;60444;43.534;-5.674;2022-12-29T14:55:00;101695.16;;;14.59;100.00
72438;BME280;60444;43.534;-5.674;2022-12-29T14:57:49;101687.19;;;14.54;100.00
72438;BME280;60444;43.534;-5.674;2022-12-29T15:00:21;101680.41;;;14.45;100.00